Airfield :
LOGIN :

Register | Disclaimer

   EN    FR    IT 

 










Legend :    VFR   Marginal VFR   IFR   Intensive IFR   Very Intensive IFR
Visi :
Ceiling :
>= 8 km
>= 3000ft
5 to 8 km
1000 to 3000 ft
1500m to 5 km
500 to 1000 ft
800 to 1500m
200 to 500 ft
< 800m
< 200 ft
Symbols :   Thunderstorms  Fog  Heavy snow  Heavy precipitations  Wind > 20 kt
SIGMETs :     Misc.  Thunderstorms  Icing  Turbulence  Mountain Waves  Volcanic Ashes







- Airport Elevation : 97 ft
- IATA code : EBJ


EKEB - Esbjerg

CURRENT METAR :
  • 192350Z AUTO 24010KT 4900NDV -SHRA BR BKN022/// BKN066/// 15/14 Q1011

EXPIRED METARs :
  • 192320Z AUTO 25015KT 9999NDV BKN017/// BKN053/// 15/13 Q1011
  • 192250Z AUTO 22014KT 190V250 9999NDV BKN016/// BKN030/// BKN075/// 18/16 Q1010
  • 192220Z AUTO 21013KT 9999NDV SCT015/// BKN028/// BKN069/// 18/16 Q1010
  • 192150Z AUTO 21013G24KT 180V240 9999NDV SCT015/// BKN079/// BKN200/// 18/16 Q1010
  • 192120Z AUTO 21016G26KT 9999NDV FEW015/// SCT053/// BKN072/// 18/16 Q1010

Expired Forecast.
No reported NOTAMs for that airfield.



MET'MAP, your aeronautical weather chart ! - Copyright ORBIFLY December 2007 - Disclaimer

ORBIFLY MET'MAP TEAM :

Programming & Development : Alexandra Zaïnal
Concept & Development : Baudouin d'Aumeries
Co-Development & Prog : Marc-Olivier Méhu
Technical & hardware support : Manuel Goepfert

Contact : metmap@orbifly.com




SOURCES & CREDITS :

   NOAA